Augusta/Daniel Field, Georgia
Current Conditions -  °F | °C
As of 1:53 PM on Tuesday 21 Oct 2014 (Local Time) from KDNL Reporting Station
Clear Clear  
Wind Chill: 79°   Ceiling: Unl
Heat Index: 79°   Visibility: 10mi
Dew Point: 42°   Wind: 9mph
Humidity: 27%   Direction: 300°WNW
Pressure: 29.93"   Gusts: 17mph
Location:  33.47°N, 82.03°W
Report Text: KDNL 211753Z AUTO 30008G15KT 270V330 10SM CLR 26/06 A2993 RMK AO2 SLP131 T02610056 10261 20139 58021
Loading
Personal Weather Stations






























Interactive Weather Map
Tropical Storm Tracking
New forecast layout! Learn more

10-Day Weather Forecast

Advertisements
Track Severe Weather on mobile